sensor_id;sensor_type;location;lat;lon;timestamp;temperature;humidity
36638;DHT22;22637;48.150;11.574;2022-07-05T00:01:50;21.00;55.30
36638;DHT22;22637;48.150;11.574;2022-07-05T00:04:16;21.00;55.40
36638;DHT22;22637;48.150;11.574;2022-07-05T00:06:41;21.00;55.40
36638;DHT22;22637;48.150;11.574;2022-07-05T00:09:27;21.00;55.30
36638;DHT22;22637;48.150;11.574;2022-07-05T00:11:52;21.00;55.50
36638;DHT22;22637;48.150;11.574;2022-07-05T00:14:18;21.00;55.60
36638;DHT22;22637;48.150;11.574;2022-07-05T00:16:44;21.00;55.40
36638;DHT22;22637;48.150;11.574;2022-07-05T00:19:09;21.00;55.30
36638;DHT22;22637;48.150;11.574;2022-07-05T00:21:35;21.00;55.20
36638;DHT22;22637;48.150;11.574;2022-07-05T00:24:00;21.00;56.00
36638;DHT22;22637;48.150;11.574;2022-07-05T00:26:26;21.00;55.70
36638;DHT22;22637;48.150;11.574;2022-07-05T00:28:51;20.90;55.70
36638;DHT22;22637;48.150;11.574;2022-07-05T00:31:17;20.90;56.70
36638;DHT22;22637;48.150;11.574;2022-07-05T00:33:42;20.80;55.90
36638;DHT22;22637;48.150;11.574;2022-07-05T00:36:08;20.80;56.60
36638;DHT22;22637;48.150;11.574;2022-07-05T00:38:33;20.80;56.20
36638;DHT22;22637;48.150;11.574;2022-07-05T00:40:59;20.70;56.30
36638;DHT22;22637;48.150;11.574;2022-07-05T00:43:24;20.70;56.00
36638;DHT22;22637;48.150;11.574;2022-07-05T00:45:50;20.70;57.70
36638;DHT22;22637;48.150;11.574;2022-07-05T00:48:15;20.60;56.60
36638;DHT22;22637;48.150;11.574;2022-07-05T00:50:41;20.50;56.70
36638;DHT22;22637;48.150;11.574;2022-07-05T00:53:07;20.50;56.80
36638;DHT22;22637;48.150;11.574;2022-07-05T00:55:33;20.40;57.00
36638;DHT22;22637;48.150;11.574;2022-07-05T00:57:58;20.40;56.90
36638;DHT22;22637;48.150;11.574;2022-07-05T01:00:24;20.40;57.20
36638;DHT22;22637;48.150;11.574;2022-07-05T01:02:50;20.40;57.40
36638;DHT22;22637;48.150;11.574;2022-07-05T01:05:15;20.30;57.60
36638;DHT22;22637;48.150;11.574;2022-07-05T01:07:41;20.30;57.60
36638;DHT22;22637;48.150;11.574;2022-07-05T01:10:07;20.30;57.60
36638;DHT22;22637;48.150;11.574;2022-07-05T01:12:32;20.30;57.80
36638;DHT22;22637;48.150;11.574;2022-07-05T01:14:58;20.30;57.70
36638;DHT22;22637;48.150;11.574;2022-07-05T01:17:24;20.30;57.70
36638;DHT22;22637;48.150;11.574;2022-07-05T01:19:50;20.30;58.20
36638;DHT22;22637;48.150;11.574;2022-07-05T01:22:17;20.30;58.40
36638;DHT22;22637;48.150;11.574;2022-07-05T01:24:44;20.30;58.30
36638;DHT22;22637;48.150;11.574;2022-07-05T01:27:09;20.40;58.20
36638;DHT22;22637;48.150;11.574;2022-07-05T01:29:35;20.40;59.10
36638;DHT22;22637;48.150;11.574;2022-07-05T01:32:01;20.40;58.20
36638;DHT22;22637;48.150;11.574;2022-07-05T01:34:26;20.40;58.20
36638;DHT22;22637;48.150;11.574;2022-07-05T01:36:52;20.40;58.30
36638;DHT22;22637;48.150;11.574;2022-07-05T01:39:17;20.40;58.30
36638;DHT22;22637;48.150;11.574;2022-07-05T01:41:44;20.40;58.20
36638;DHT22;22637;48.150;11.574;2022-07-05T01:44:10;20.40;58.00
36638;DHT22;22637;48.150;11.574;2022-07-05T01:46:36;20.40;58.30
36638;DHT22;22637;48.150;11.574;2022-07-05T01:49:04;20.40;58.20
36638;DHT22;22637;48.150;11.574;2022-07-05T01:51:34;20.40;58.30
36638;DHT22;22637;48.150;11.574;2022-07-05T01:54:03;20.40;58.50
36638;DHT22;22637;48.150;11.574;2022-07-05T01:56:28;20.40;59.00
36638;DHT22;22637;48.150;11.574;2022-07-05T01:58:54;20.40;58.70
36638;DHT22;22637;48.150;11.574;2022-07-05T02:01:37;20.40;58.60
36638;DHT22;22637;48.150;11.574;2022-07-05T02:04:03;20.40;58.80
36638;DHT22;22637;48.150;11.574;2022-07-05T02:06:30;20.40;58.70
36638;DHT22;22637;48.150;11.574;2022-07-05T02:08:55;20.40;58.70
36638;DHT22;22637;48.150;11.574;2022-07-05T02:11:21;20.40;58.90
36638;DHT22;22637;48.150;11.574;2022-07-05T02:13:46;20.40;58.80
36638;DHT22;22637;48.150;11.574;2022-07-05T02:16:12;20.40;59.10
36638;DHT22;22637;48.150;11.574;2022-07-05T02:18:37;20.40;59.30
36638;DHT22;22637;48.150;11.574;2022-07-05T02:21:03;20.40;59.50
36638;DHT22;22637;48.150;11.574;2022-07-05T02:23:28;20.40;60.50
36638;DHT22;22637;48.150;11.574;2022-07-05T02:25:54;20.40;59.50
36638;DHT22;22637;48.150;11.574;2022-07-05T02:28:19;20.40;59.50
36638;DHT22;22637;48.150;11.574;2022-07-05T02:30:45;20.40;59.50
36638;DHT22;22637;48.150;11.574;2022-07-05T02:33:11;20.40;59.30
36638;DHT22;22637;48.150;11.574;2022-07-05T02:35:36;20.40;59.30
36638;DHT22;22637;48.150;11.574;2022-07-05T02:38:02;20.40;59.40
36638;DHT22;22637;48.150;11.574;2022-07-05T02:40:28;20.40;59.50
36638;DHT22;22637;48.150;11.574;2022-07-05T02:42:53;20.40;59.40
36638;DHT22;22637;48.150;11.574;2022-07-05T02:45:19;20.40;59.80
36638;DHT22;22637;48.150;11.574;2022-07-05T02:47:44;20.40;59.60
36638;DHT22;22637;48.150;11.574;2022-07-05T02:50:10;20.40;59.60
36638;DHT22;22637;48.150;11.574;2022-07-05T02:52:36;20.40;59.80
36638;DHT22;22637;48.150;11.574;2022-07-05T02:55:02;20.40;59.60
36638;DHT22;22637;48.150;11.574;2022-07-05T02:57:28;20.40;59.60
36638;DHT22;22637;48.150;11.574;2022-07-05T02:59:53;20.40;59.60
36638;DHT22;22637;48.150;11.574;2022-07-05T03:02:20;20.40;59.60
36638;DHT22;22637;48.150;11.574;2022-07-05T03:04:45;20.40;59.90
36638;DHT22;22637;48.150;11.574;2022-07-05T03:07:11;20.30;60.30
36638;DHT22;22637;48.150;11.574;2022-07-05T03:09:37;20.30;60.10
36638;DHT22;22637;48.150;11.574;2022-07-05T03:12:02;20.40;59.80
36638;DHT22;22637;48.150;11.574;2022-07-05T03:14:28;20.40;60.00
36638;DHT22;22637;48.150;11.574;2022-07-05T03:16:53;20.30;60.10
36638;DHT22;22637;48.150;11.574;2022-07-05T03:19:19;20.40;60.20
36638;DHT22;22637;48.150;11.574;2022-07-05T03:21:44;20.40;60.80
36638;DHT22;22637;48.150;11.574;2022-07-05T03:24:10;20.40;60.40
36638;DHT22;22637;48.150;11.574;2022-07-05T03:26:36;20.40;60.30
36638;DHT22;22637;48.150;11.574;2022-07-05T03:29:01;20.40;60.30
36638;DHT22;22637;48.150;11.574;2022-07-05T03:31:27;20.40;60.30
36638;DHT22;22637;48.150;11.574;2022-07-05T03:33:52;20.40;60.40
36638;DHT22;22637;48.150;11.574;2022-07-05T03:36:18;20.40;60.50
36638;DHT22;22637;48.150;11.574;2022-07-05T03:38:43;20.40;60.20
36638;DHT22;22637;48.150;11.574;2022-07-05T03:41:09;20.50;60.30
36638;DHT22;22637;48.150;11.574;2022-07-05T03:43:34;20.50;60.30
36638;DHT22;22637;48.150;11.574;2022-07-05T03:46:00;20.50;60.40
36638;DHT22;22637;48.150;11.574;2022-07-05T03:48:25;20.50;60.40
36638;DHT22;22637;48.150;11.574;2022-07-05T03:50:51;20.40;60.30
36638;DHT22;22637;48.150;11.574;2022-07-05T03:53:18;20.40;60.60
36638;DHT22;22637;48.150;11.574;2022-07-05T03:55:44;20.40;60.40
36638;DHT22;22637;48.150;11.574;2022-07-05T03:58:10;20.40;60.70
36638;DHT22;22637;48.150;11.574;2022-07-05T04:00:35;20.40;60.60
36638;DHT22;22637;48.150;11.574;2022-07-05T04:03:01;20.40;60.80
36638;DHT22;22637;48.150;11.574;2022-07-05T04:05:26;20.40;60.80
36638;DHT22;22637;48.150;11.574;2022-07-05T04:07:53;20.40;60.80
36638;DHT22;22637;48.150;11.574;2022-07-05T04:10:19;20.30;60.70
36638;DHT22;22637;48.150;11.574;2022-07-05T04:12:44;20.30;60.80
36638;DHT22;22637;48.150;11.574;2022-07-05T04:15:10;20.30;60.70
36638;DHT22;22637;48.150;11.574;2022-07-05T04:17:45;20.30;61.00
36638;DHT22;22637;48.150;11.574;2022-07-05T04:20:11;20.30;61.10
36638;DHT22;22637;48.150;11.574;2022-07-05T04:22:36;20.30;61.10
36638;DHT22;22637;48.150;11.574;2022-07-05T04:25:02;20.30;61.20
36638;DHT22;22637;48.150;11.574;2022-07-05T04:27:52;20.30;61.30
36638;DHT22;22637;48.150;11.574;2022-07-05T04:30:19;20.30;61.10
36638;DHT22;22637;48.150;11.574;2022-07-05T04:32:45;20.30;61.40
36638;DHT22;22637;48.150;11.574;2022-07-05T04:35:11;20.30;61.30
36638;DHT22;22637;48.150;11.574;2022-07-05T04:37:36;20.30;61.40
36638;DHT22;22637;48.150;11.574;2022-07-05T04:40:03;20.30;61.50
36638;DHT22;22637;48.150;11.574;2022-07-05T04:42:28;20.30;61.50
36638;DHT22;22637;48.150;11.574;2022-07-05T04:44:54;20.40;61.60
36638;DHT22;22637;48.150;11.574;2022-07-05T04:47:19;20.40;61.70
36638;DHT22;22637;48.150;11.574;2022-07-05T04:49:45;20.40;61.80
36638;DHT22;22637;48.150;11.574;2022-07-05T04:52:10;20.40;62.30
36638;DHT22;22637;48.150;11.574;2022-07-05T04:54:36;20.40;62.00
36638;DHT22;22637;48.150;11.574;2022-07-05T04:57:02;20.40;62.10
36638;DHT22;22637;48.150;11.574;2022-07-05T04:59:27;20.40;62.40
36638;DHT22;22637;48.150;11.574;2022-07-05T05:01:53;20.40;61.90
36638;DHT22;22637;48.150;11.574;2022-07-05T05:04:18;20.50;62.00
36638;DHT22;22637;48.150;11.574;2022-07-05T05:06:44;20.50;62.30
36638;DHT22;22637;48.150;11.574;2022-07-05T05:09:09;20.60;62.30
36638;DHT22;22637;48.150;11.574;2022-07-05T05:11:35;20.60;62.20
36638;DHT22;22637;48.150;11.574;2022-07-05T05:14:00;20.70;62.00
36638;DHT22;22637;48.150;11.574;2022-07-05T05:16:26;20.70;62.10
36638;DHT22;22637;48.150;11.574;2022-07-05T05:18:52;20.80;61.90
36638;DHT22;22637;48.150;11.574;2022-07-05T05:21:17;20.80;61.90
36638;DHT22;22637;48.150;11.574;2022-07-05T05:23:43;20.80;61.90
36638;DHT22;22637;48.150;11.574;2022-07-05T05:26:08;20.80;61.80
36638;DHT22;22637;48.150;11.574;2022-07-05T05:28:34;20.80;61.90
36638;DHT22;22637;48.150;11.574;2022-07-05T05:30:59;20.90;62.30
36638;DHT22;22637;48.150;11.574;2022-07-05T05:33:25;20.90;62.00
36638;DHT22;22637;48.150;11.574;2022-07-05T05:35:50;20.90;62.30
36638;DHT22;22637;48.150;11.574;2022-07-05T05:38:16;20.90;62.00
36638;DHT22;22637;48.150;11.574;2022-07-05T05:40:41;21.00;61.90
36638;DHT22;22637;48.150;11.574;2022-07-05T05:43:09;20.90;61.90
36638;DHT22;22637;48.150;11.574;2022-07-05T05:45:35;21.00;62.10
36638;DHT22;22637;48.150;11.574;2022-07-05T05:48:01;21.00;62.10
36638;DHT22;22637;48.150;11.574;2022-07-05T05:50:31;21.00;62.10
36638;DHT22;22637;48.150;11.574;2022-07-05T05:52:56;21.10;62.40
36638;DHT22;22637;48.150;11.574;2022-07-05T05:55:23;21.10;62.50
36638;DHT22;22637;48.150;11.574;2022-07-05T05:57:49;21.20;62.50
36638;DHT22;22637;48.150;11.574;2022-07-05T06:00:15;21.20;62.60
36638;DHT22;22637;48.150;11.574;2022-07-05T06:02:41;21.30;62.70
36638;DHT22;22637;48.150;11.574;2022-07-05T06:05:07;21.30;62.50
36638;DHT22;22637;48.150;11.574;2022-07-05T06:07:46;21.40;62.70
36638;DHT22;22637;48.150;11.574;2022-07-05T06:10:14;21.40;62.60
36638;DHT22;22637;48.150;11.574;2022-07-05T06:12:40;21.50;62.70
36638;DHT22;22637;48.150;11.574;2022-07-05T06:15:05;21.60;62.80
36638;DHT22;22637;48.150;11.574;2022-07-05T06:17:35;21.60;62.70
36638;DHT22;22637;48.150;11.574;2022-07-05T06:20:03;21.70;62.80
36638;DHT22;22637;48.150;11.574;2022-07-05T06:22:29;21.70;62.80
36638;DHT22;22637;48.150;11.574;2022-07-05T06:24:54;21.70;62.70
36638;DHT22;22637;48.150;11.574;2022-07-05T06:27:19;21.80;62.80
36638;DHT22;22637;48.150;11.574;2022-07-05T06:29:45;21.90;62.70
36638;DHT22;22637;48.150;11.574;2022-07-05T06:32:10;22.00;62.80
36638;DHT22;22637;48.150;11.574;2022-07-05T06:34:36;22.00;62.60
36638;DHT22;22637;48.150;11.574;2022-07-05T06:37:01;22.10;62.80
36638;DHT22;22637;48.150;11.574;2022-07-05T06:39:27;22.10;62.70
36638;DHT22;22637;48.150;11.574;2022-07-05T06:41:52;22.20;62.90
36638;DHT22;22637;48.150;11.574;2022-07-05T06:44:18;22.30;62.70
36638;DHT22;22637;48.150;11.574;2022-07-05T06:46:44;22.30;62.70
36638;DHT22;22637;48.150;11.574;2022-07-05T06:49:09;22.40;62.70
36638;DHT22;22637;48.150;11.574;2022-07-05T06:51:35;22.40;62.50
36638;DHT22;22637;48.150;11.574;2022-07-05T06:54:01;22.50;62.60
36638;DHT22;22637;48.150;11.574;2022-07-05T06:56:27;22.60;62.60
36638;DHT22;22637;48.150;11.574;2022-07-05T06:58:52;22.60;62.50
36638;DHT22;22637;48.150;11.574;2022-07-05T07:01:18;22.60;62.50
36638;DHT22;22637;48.150;11.574;2022-07-05T07:03:43;22.70;62.50
36638;DHT22;22637;48.150;11.574;2022-07-05T07:06:09;22.80;62.40
36638;DHT22;22637;48.150;11.574;2022-07-05T07:08:34;22.80;62.30
36638;DHT22;22637;48.150;11.574;2022-07-05T07:11:19;22.90;62.30
36638;DHT22;22637;48.150;11.574;2022-07-05T07:13:44;22.90;62.20
36638;DHT22;22637;48.150;11.574;2022-07-05T07:16:10;23.00;62.00
36638;DHT22;22637;48.150;11.574;2022-07-05T07:18:35;23.00;61.90
36638;DHT22;22637;48.150;11.574;2022-07-05T07:21:01;23.10;61.90
36638;DHT22;22637;48.150;11.574;2022-07-05T07:23:26;23.10;61.90
36638;DHT22;22637;48.150;11.574;2022-07-05T07:25:52;23.20;62.30
36638;DHT22;22637;48.150;11.574;2022-07-05T07:28:17;23.30;61.70
36638;DHT22;22637;48.150;11.574;2022-07-05T07:30:43;23.30;61.70
36638;DHT22;22637;48.150;11.574;2022-07-05T07:33:08;23.40;61.70
36638;DHT22;22637;48.150;11.574;2022-07-05T07:35:34;23.50;61.80
36638;DHT22;22637;48.150;11.574;2022-07-05T07:37:59;23.70;61.80
36638;DHT22;22637;48.150;11.574;2022-07-05T07:40:25;23.80;61.70
36638;DHT22;22637;48.150;11.574;2022-07-05T07:42:50;23.90;61.60
36638;DHT22;22637;48.150;11.574;2022-07-05T07:45:16;24.00;61.50
36638;DHT22;22637;48.150;11.574;2022-07-05T07:47:41;24.10;61.20
36638;DHT22;22637;48.150;11.574;2022-07-05T07:50:08;24.20;61.10
36638;DHT22;22637;48.150;11.574;2022-07-05T07:52:33;24.40;60.80
36638;DHT22;22637;48.150;11.574;2022-07-05T07:54:59;24.40;60.70
36638;DHT22;22637;48.150;11.574;2022-07-05T07:57:25;24.50;60.40
36638;DHT22;22637;48.150;11.574;2022-07-05T07:59:51;24.60;60.30
36638;DHT22;22637;48.150;11.574;2022-07-05T08:02:16;24.70;60.30
36638;DHT22;22637;48.150;11.574;2022-07-05T08:04:46;24.70;60.20
36638;DHT22;22637;48.150;11.574;2022-07-05T08:07:12;24.80;60.10
36638;DHT22;22637;48.150;11.574;2022-07-05T08:09:37;24.90;60.10
36638;DHT22;22637;48.150;11.574;2022-07-05T08:12:03;24.90;59.60
36638;DHT22;22637;48.150;11.574;2022-07-05T08:14:28;25.00;59.40
36638;DHT22;22637;48.150;11.574;2022-07-05T08:16:54;25.00;58.80
36638;DHT22;22637;48.150;11.574;2022-07-05T08:19:20;25.10;57.80
36638;DHT22;22637;48.150;11.574;2022-07-05T08:22:04;25.10;58.80
36638;DHT22;22637;48.150;11.574;2022-07-05T08:24:30;25.10;59.00
36638;DHT22;22637;48.150;11.574;2022-07-05T08:26:55;25.10;59.00
36638;DHT22;22637;48.150;11.574;2022-07-05T08:29:21;25.20;59.00
36638;DHT22;22637;48.150;11.574;2022-07-05T08:31:47;25.20;58.10
36638;DHT22;22637;48.150;11.574;2022-07-05T08:34:14;25.30;58.20
36638;DHT22;22637;48.150;11.574;2022-07-05T08:36:40;25.30;58.20
36638;DHT22;22637;48.150;11.574;2022-07-05T08:39:07;25.40;58.10
36638;DHT22;22637;48.150;11.574;2022-07-05T08:41:37;25.40;57.90
36638;DHT22;22637;48.150;11.574;2022-07-05T08:44:03;25.50;57.80
36638;DHT22;22637;48.150;11.574;2022-07-05T08:46:32;25.50;58.00
36638;DHT22;22637;48.150;11.574;2022-07-05T08:48:59;25.50;57.70
36638;DHT22;22637;48.150;11.574;2022-07-05T08:51:24;25.50;56.50
36638;DHT22;22637;48.150;11.574;2022-07-05T08:53:52;25.50;56.50
36638;DHT22;22637;48.150;11.574;2022-07-05T08:56:18;25.60;57.30
36638;DHT22;22637;48.150;11.574;2022-07-05T08:58:44;25.60;55.70
36638;DHT22;22637;48.150;11.574;2022-07-05T09:01:10;25.60;56.80
36638;DHT22;22637;48.150;11.574;2022-07-05T09:03:38;25.70;56.40
36638;DHT22;22637;48.150;11.574;2022-07-05T09:06:05;25.80;56.40
36638;DHT22;22637;48.150;11.574;2022-07-05T09:08:31;25.80;56.20
36638;DHT22;22637;48.150;11.574;2022-07-05T09:11:04;25.90;56.70
36638;DHT22;22637;48.150;11.574;2022-07-05T09:13:33;25.90;56.50
36638;DHT22;22637;48.150;11.574;2022-07-05T09:15:59;26.00;57.50
36638;DHT22;22637;48.150;11.574;2022-07-05T09:18:40;26.10;55.90
36638;DHT22;22637;48.150;11.574;2022-07-05T09:23:38;26.40;56.70
36638;DHT22;22637;48.150;11.574;2022-07-05T09:26:03;26.50;55.70
36638;DHT22;22637;48.150;11.574;2022-07-05T09:28:29;26.60;56.10
36638;DHT22;22637;48.150;11.574;2022-07-05T09:30:54;26.70;56.30
36638;DHT22;22637;48.150;11.574;2022-07-05T09:33:20;26.80;56.30
36638;DHT22;22637;48.150;11.574;2022-07-05T09:35:53;26.90;54.60
36638;DHT22;22637;48.150;11.574;2022-07-05T09:38:20;27.00;55.50
36638;DHT22;22637;48.150;11.574;2022-07-05T09:40:47;27.20;55.60
36638;DHT22;22637;48.150;11.574;2022-07-05T09:43:14;27.30;55.60
36638;DHT22;22637;48.150;11.574;2022-07-05T09:45:49;27.40;55.70
36638;DHT22;22637;48.150;11.574;2022-07-05T09:48:15;27.50;55.00
36638;DHT22;22637;48.150;11.574;2022-07-05T09:50:40;27.60;55.40
36638;DHT22;22637;48.150;11.574;2022-07-05T09:53:06;27.70;55.20
36638;DHT22;22637;48.150;11.574;2022-07-05T09:55:31;27.80;55.00
36638;DHT22;22637;48.150;11.574;2022-07-05T09:57:58;27.90;54.90
36638;DHT22;22637;48.150;11.574;2022-07-05T10:00:24;28.00;55.60
36638;DHT22;22637;48.150;11.574;2022-07-05T10:02:53;28.10;54.80
36638;DHT22;22637;48.150;11.574;2022-07-05T10:05:24;28.20;55.10
36638;DHT22;22637;48.150;11.574;2022-07-05T10:07:51;28.20;54.50
36638;DHT22;22637;48.150;11.574;2022-07-05T10:10:20;28.30;53.20
36638;DHT22;22637;48.150;11.574;2022-07-05T10:12:47;28.40;53.40
36638;DHT22;22637;48.150;11.574;2022-07-05T10:15:14;28.40;54.30
36638;DHT22;22637;48.150;11.574;2022-07-05T10:17:41;28.50;51.50
36638;DHT22;22637;48.150;11.574;2022-07-05T10:20:49;28.60;53.00
36638;DHT22;22637;48.150;11.574;2022-07-05T10:22:56;28.60;52.70
36638;DHT22;22637;48.150;11.574;2022-07-05T10:25:22;28.60;53.00
36638;DHT22;22637;48.150;11.574;2022-07-05T10:27:48;28.60;52.70
36638;DHT22;22637;48.150;11.574;2022-07-05T10:30:18;28.70;53.00
36638;DHT22;22637;48.150;11.574;2022-07-05T10:32:43;28.80;53.50
36638;DHT22;22637;48.150;11.574;2022-07-05T10:35:10;28.90;52.90
36638;DHT22;22637;48.150;11.574;2022-07-05T10:37:35;29.00;52.40
36638;DHT22;22637;48.150;11.574;2022-07-05T10:40:02;29.20;51.80
36638;DHT22;22637;48.150;11.574;2022-07-05T10:42:36;29.30;52.00
36638;DHT22;22637;48.150;11.574;2022-07-05T10:45:02;29.40;51.10
36638;DHT22;22637;48.150;11.574;2022-07-05T10:47:28;29.50;51.40
36638;DHT22;22637;48.150;11.574;2022-07-05T10:50:02;29.60;51.60
36638;DHT22;22637;48.150;11.574;2022-07-05T10:52:28;29.70;50.60
36638;DHT22;22637;48.150;11.574;2022-07-05T10:57:38;29.80;50.40
36638;DHT22;22637;48.150;11.574;2022-07-05T11:00:04;29.80;49.90
36638;DHT22;22637;48.150;11.574;2022-07-05T11:02:29;29.80;49.70
36638;DHT22;22637;48.150;11.574;2022-07-05T11:04:55;29.80;50.70
36638;DHT22;22637;48.150;11.574;2022-07-05T11:10:05;29.80;50.70
36638;DHT22;22637;48.150;11.574;2022-07-05T11:12:35;29.80;49.70
36638;DHT22;22637;48.150;11.574;2022-07-05T11:15:05;29.90;50.50
36638;DHT22;22637;48.150;11.574;2022-07-05T11:17:32;29.90;50.10
36638;DHT22;22637;48.150;11.574;2022-07-05T11:22:28;30.00;50.30
36638;DHT22;22637;48.150;11.574;2022-07-05T11:24:55;30.00;49.30
36638;DHT22;22637;48.150;11.574;2022-07-05T11:27:20;30.10;49.70
36638;DHT22;22637;48.150;11.574;2022-07-05T11:29:47;30.20;50.10
36638;DHT22;22637;48.150;11.574;2022-07-05T11:34:43;30.40;49.50
36638;DHT22;22637;48.150;11.574;2022-07-05T11:39:41;30.50;48.60
36638;DHT22;22637;48.150;11.574;2022-07-05T11:42:11;30.60;47.80
36638;DHT22;22637;48.150;11.574;2022-07-05T11:44:44;30.70;47.50
36638;DHT22;22637;48.150;11.574;2022-07-05T11:47:11;30.70;46.50
36638;DHT22;22637;48.150;11.574;2022-07-05T11:49:38;30.70;48.00
36638;DHT22;22637;48.150;11.574;2022-07-05T11:52:04;30.80;45.20
36638;DHT22;22637;48.150;11.574;2022-07-05T11:54:30;30.90;47.80
36638;DHT22;22637;48.150;11.574;2022-07-05T11:56:56;30.90;47.00
36638;DHT22;22637;48.150;11.574;2022-07-05T11:59:23;30.90;46.80
36638;DHT22;22637;48.150;11.574;2022-07-05T12:01:48;30.90;47.80
36638;DHT22;22637;48.150;11.574;2022-07-05T12:04:21;30.90;48.90
36638;DHT22;22637;48.150;11.574;2022-07-05T12:06:47;31.00;49.00
36638;DHT22;22637;48.150;11.574;2022-07-05T12:09:14;31.00;47.60
36638;DHT22;22637;48.150;11.574;2022-07-05T12:11:49;31.10;47.80
36638;DHT22;22637;48.150;11.574;2022-07-05T12:14:33;31.20;47.70
36638;DHT22;22637;48.150;11.574;2022-07-05T12:17:15;31.30;46.60
36638;DHT22;22637;48.150;11.574;2022-07-05T12:19:40;31.40;46.10
36638;DHT22;22637;48.150;11.574;2022-07-05T12:22:06;31.60;47.40
36638;DHT22;22637;48.150;11.574;2022-07-05T12:24:31;31.70;47.10
36638;DHT22;22637;48.150;11.574;2022-07-05T12:26:57;31.90;46.50
36638;DHT22;22637;48.150;11.574;2022-07-05T12:29:23;32.00;47.00
36638;DHT22;22637;48.150;11.574;2022-07-05T12:32:02;32.10;47.30
36638;DHT22;22637;48.150;11.574;2022-07-05T12:34:27;32.30;43.70
36638;DHT22;22637;48.150;11.574;2022-07-05T12:36:54;32.50;43.50
36638;DHT22;22637;48.150;11.574;2022-07-05T12:39:20;32.70;45.30
36638;DHT22;22637;48.150;11.574;2022-07-05T12:41:46;32.90;42.70
36638;DHT22;22637;48.150;11.574;2022-07-05T12:44:11;32.90;44.80
36638;DHT22;22637;48.150;11.574;2022-07-05T12:46:37;33.00;45.30
36638;DHT22;22637;48.150;11.574;2022-07-05T12:49:03;33.00;44.20
36638;DHT22;22637;48.150;11.574;2022-07-05T12:51:33;33.00;46.60
36638;DHT22;22637;48.150;11.574;2022-07-05T12:53:58;33.10;45.60
36638;DHT22;22637;48.150;11.574;2022-07-05T12:56:49;33.10;44.30
36638;DHT22;22637;48.150;11.574;2022-07-05T12:59:34;33.10;44.90
36638;DHT22;22637;48.150;11.574;2022-07-05T13:01:59;33.20;44.70
36638;DHT22;22637;48.150;11.574;2022-07-05T13:04:25;33.40;45.70
36638;DHT22;22637;48.150;11.574;2022-07-05T13:09:21;34.20;46.70
36638;DHT22;22637;48.150;11.574;2022-07-05T13:14:42;35.00;44.90
36638;DHT22;22637;48.150;11.574;2022-07-05T13:17:08;35.40;46.30
36638;DHT22;22637;48.150;11.574;2022-07-05T13:19:34;35.60;44.60
36638;DHT22;22637;48.150;11.574;2022-07-05T13:22:00;35.80;44.10
36638;DHT22;22637;48.150;11.574;2022-07-05T13:24:26;36.00;45.80
36638;DHT22;22637;48.150;11.574;2022-07-05T13:26:51;36.10;43.60
36638;DHT22;22637;48.150;11.574;2022-07-05T13:29:17;36.30;45.90
36638;DHT22;22637;48.150;11.574;2022-07-05T13:31:43;36.60;44.70
36638;DHT22;22637;48.150;11.574;2022-07-05T13:34:08;36.70;44.80
36638;DHT22;22637;48.150;11.574;2022-07-05T13:36:34;36.90;45.50
36638;DHT22;22637;48.150;11.574;2022-07-05T13:38:59;37.20;45.20
36638;DHT22;22637;48.150;11.574;2022-07-05T13:41:25;37.40;45.90
36638;DHT22;22637;48.150;11.574;2022-07-05T13:43:51;37.70;43.90
36638;DHT22;22637;48.150;11.574;2022-07-05T13:46:17;37.90;43.70
36638;DHT22;22637;48.150;11.574;2022-07-05T13:48:42;38.00;42.30
36638;DHT22;22637;48.150;11.574;2022-07-05T13:51:08;38.20;42.10
36638;DHT22;22637;48.150;11.574;2022-07-05T13:53:33;38.40;43.00
36638;DHT22;22637;48.150;11.574;2022-07-05T13:55:59;38.60;44.90
36638;DHT22;22637;48.150;11.574;2022-07-05T13:58:25;38.80;41.80
36638;DHT22;22637;48.150;11.574;2022-07-05T14:00:50;39.00;40.10
36638;DHT22;22637;48.150;11.574;2022-07-05T14:03:16;39.20;40.90
36638;DHT22;22637;48.150;11.574;2022-07-05T14:05:44;39.30;41.30
36638;DHT22;22637;48.150;11.574;2022-07-05T14:08:11;39.50;40.90
36638;DHT22;22637;48.150;11.574;2022-07-05T14:10:37;39.50;41.10
36638;DHT22;22637;48.150;11.574;2022-07-05T14:13:03;39.60;36.30
36638;DHT22;22637;48.150;11.574;2022-07-05T14:15:29;39.60;39.80
36638;DHT22;22637;48.150;11.574;2022-07-05T14:17:54;39.60;40.40
36638;DHT22;22637;48.150;11.574;2022-07-05T14:20:20;39.60;41.80
36638;DHT22;22637;48.150;11.574;2022-07-05T14:22:46;39.60;38.50
36638;DHT22;22637;48.150;11.574;2022-07-05T14:25:11;39.50;36.20
36638;DHT22;22637;48.150;11.574;2022-07-05T14:27:37;39.40;38.20
36638;DHT22;22637;48.150;11.574;2022-07-05T14:30:06;39.40;39.70
36638;DHT22;22637;48.150;11.574;2022-07-05T14:32:33;39.30;38.40
36638;DHT22;22637;48.150;11.574;2022-07-05T14:34:58;39.40;40.30
36638;DHT22;22637;48.150;11.574;2022-07-05T14:37:24;39.40;39.80
36638;DHT22;22637;48.150;11.574;2022-07-05T14:39:50;39.40;40.10
36638;DHT22;22637;48.150;11.574;2022-07-05T14:42:15;39.20;38.60
36638;DHT22;22637;48.150;11.574;2022-07-05T14:44:41;39.00;40.00
36638;DHT22;22637;48.150;11.574;2022-07-05T14:47:07;38.70;38.90
36638;DHT22;22637;48.150;11.574;2022-07-05T14:49:32;38.30;37.10
36638;DHT22;22637;48.150;11.574;2022-07-05T14:51:58;37.80;38.20
36638;DHT22;22637;48.150;11.574;2022-07-05T14:54:23;37.30;37.60
36638;DHT22;22637;48.150;11.574;2022-07-05T14:56:49;36.90;37.90
36638;DHT22;22637;48.150;11.574;2022-07-05T14:59:15;36.40;38.00
36638;DHT22;22637;48.150;11.574;2022-07-05T15:01:41;36.10;38.80
36638;DHT22;22637;48.150;11.574;2022-07-05T15:04:06;35.80;37.50
36638;DHT22;22637;48.150;11.574;2022-07-05T15:06:32;35.60;39.20
36638;DHT22;22637;48.150;11.574;2022-07-05T15:08:57;35.50;39.10
36638;DHT22;22637;48.150;11.574;2022-07-05T15:11:23;35.40;39.10
36638;DHT22;22637;48.150;11.574;2022-07-05T15:13:48;35.40;39.00
36638;DHT22;22637;48.150;11.574;2022-07-05T15:16:15;35.30;38.60
36638;DHT22;22637;48.150;11.574;2022-07-05T15:18:40;35.30;40.00
36638;DHT22;22637;48.150;11.574;2022-07-05T15:21:06;35.20;39.80
36638;DHT22;22637;48.150;11.574;2022-07-05T15:23:33;35.20;37.80
36638;DHT22;22637;48.150;11.574;2022-07-05T15:25:58;35.10;38.40
36638;DHT22;22637;48.150;11.574;2022-07-05T15:28:24;35.00;39.80
36638;DHT22;22637;48.150;11.574;2022-07-05T15:30:49;34.80;38.90
36638;DHT22;22637;48.150;11.574;2022-07-05T15:33:17;34.60;39.60